createdAt,value
2018-05-21T00:00:05.114Z,102452.63
2018-05-21T00:02:31.952Z,102447.95
2018-05-21T00:04:59.119Z,102451.60
2018-05-21T00:07:25.987Z,102448.01
2018-05-21T00:09:53.574Z,102451.13
2018-05-21T00:12:20.731Z,102460.13
2018-05-21T00:14:47.595Z,102451.83
2018-05-21T00:17:14.536Z,102453.48
2018-05-21T00:19:41.414Z,102451.70
2018-05-21T00:22:08.242Z,102444.75
2018-05-21T00:24:35.088Z,102442.88
2018-05-21T00:27:01.995Z,102443.19
2018-05-21T00:29:28.831Z,102445.97
2018-05-21T00:31:55.667Z,102450.98
2018-05-21T00:34:39.459Z,102451.39
2018-05-21T00:37:06.311Z,102449.95
2018-05-21T00:39:33.153Z,102450.67
2018-05-21T00:42:00.441Z,102450.27
2018-05-21T00:44:28.018Z,102446.87
2018-05-21T00:46:54.857Z,102458.88
2018-05-21T00:49:22.740Z,102454.50
2018-05-21T00:51:49.575Z,102444.56
2018-05-21T00:54:16.432Z,102447.15
2018-05-21T00:56:43.566Z,102450.27
2018-05-21T00:59:10.407Z,102447.11
2018-05-21T01:01:38.009Z,102453.13
2018-05-21T01:04:04.925Z,102448.64
2018-05-21T01:06:31.799Z,102448.77
2018-05-21T01:08:58.643Z,102443.80
2018-05-21T01:11:25.532Z,102447.08
2018-05-21T01:13:53.124Z,102445.70
2018-05-21T01:16:19.954Z,102442.52
2018-05-21T01:18:47.117Z,102451.75
2018-05-21T01:21:13.952Z,102432.64
2018-05-21T01:23:40.800Z,102444.50
2018-05-21T01:26:08.056Z,102439.92
2018-05-21T01:28:34.887Z,102439.75
2018-05-21T01:31:02.466Z,102435.78
2018-05-21T01:33:29.352Z,102437.13
2018-05-21T01:35:56.239Z,102433.55
2018-05-21T01:38:23.083Z,102436.91
2018-05-21T01:40:50.968Z,102434.28
2018-05-21T01:43:17.903Z,102431.61
2018-05-21T01:45:45.481Z,102432.76
2018-05-21T01:48:12.365Z,102423.37
2018-05-21T01:50:39.212Z,102425.66
2018-05-21T01:53:06.114Z,102423.09
2018-05-21T01:55:32.983Z,102424.53
2018-05-21T01:57:59.830Z,102420.70
2018-05-21T02:00:27.508Z,102423.17
2018-05-21T02:02:54.399Z,102419.55
2018-05-21T02:05:21.244Z,102414.94
2018-05-21T02:07:48.111Z,102425.50
2018-05-21T02:10:15.049Z,102421.45
2018-05-21T02:12:41.880Z,102418.58
2018-05-21T02:15:15.413Z,102415.43
2018-05-21T02:17:42.539Z,102410.00
2018-05-21T02:20:09.460Z,102407.89
2018-05-21T02:22:36.247Z,102410.18
2018-05-21T02:25:03.208Z,102411.41
2018-05-21T02:27:30.074Z,102406.28
2018-05-21T02:29:56.932Z,102406.47
2018-05-21T02:32:23.827Z,102402.97
2018-05-21T02:34:50.686Z,102406.97
2018-05-21T02:37:17.528Z,102405.88
2018-05-21T02:39:44.758Z,102402.45
2018-05-21T02:42:11.583Z,102401.63
2018-05-21T02:44:38.592Z,102395.48
2018-05-21T02:47:05.791Z,102393.55
2018-05-21T02:49:32.609Z,102397.23
2018-05-21T02:51:59.443Z,102395.31
2018-05-21T02:54:26.338Z,102388.53
2018-05-21T02:56:53.176Z,102387.86
2018-05-21T02:59:20.028Z,102389.36
2018-05-21T03:01:47.267Z,102388.83
2018-05-21T03:04:14.840Z,102385.81
2018-05-21T03:06:41.654Z,102390.94
2018-05-21T03:09:09.544Z,102388.77
2018-05-21T03:11:36.384Z,102385.81
2018-05-21T03:14:03.277Z,102383.34
2018-05-21T03:16:30.486Z,102384.31
2018-05-21T03:18:57.335Z,102386.69
2018-05-21T03:21:24.172Z,102387.39
2018-05-21T03:23:51.063Z,102384.45
2018-05-21T03:26:17.912Z,102390.58
2018-05-21T03:28:44.743Z,102393.06
2018-05-21T03:31:11.619Z,102386.07
2018-05-21T03:33:39.192Z,102384.45
2018-05-21T03:36:06.789Z,102389.49
2018-05-21T03:38:33.924Z,102389.78
2018-05-21T03:41:00.744Z,102390.45
2018-05-21T03:43:28.317Z,102389.20
2018-05-21T03:45:56.402Z,102389.52
2018-05-21T03:48:23.227Z,102386.30
2018-05-21T03:50:50.796Z,102389.24
2018-05-21T03:53:18.659Z,102398.20
2018-05-21T03:55:46.224Z,102395.16
2018-05-21T04:01:37.133Z,102401.73
2018-05-21T04:04:04.296Z,102396.55
2018-05-21T04:06:31.888Z,102398.12
2018-05-21T04:08:58.722Z,102398.06
2018-05-21T04:11:26.697Z,102400.98
2018-05-21T04:13:53.551Z,102396.79
2018-05-21T04:16:20.387Z,102391.05
2018-05-21T04:18:47.571Z,102395.44
2018-05-21T04:21:14.394Z,102399.17
2018-05-21T04:23:41.228Z,102391.13
2018-05-21T04:26:08.376Z,102390.52
2018-05-21T04:28:41.186Z,102390.86
2018-05-21T04:31:08.052Z,102389.17
2018-05-21T04:33:35.258Z,102388.23
2018-05-21T04:36:02.116Z,102381.97
2018-05-21T04:38:28.951Z,102388.17
2018-05-21T04:40:56.097Z,102378.81
2018-05-21T04:43:22.935Z,102384.36
2018-05-21T04:45:49.781Z,102380.13
2018-05-21T04:48:17.135Z,102382.34
2018-05-21T04:50:44.033Z,102379.73
2018-05-21T04:53:10.959Z,102374.39
2018-05-21T04:55:37.799Z,102378.33
2018-05-21T04:58:04.712Z,102379.27
2018-05-21T05:00:32.340Z,102378.94
2018-05-21T05:02:59.172Z,102370.77
2018-05-21T05:05:26.000Z,102374.41
2018-05-21T05:07:53.005Z,102370.33
2018-05-21T05:10:20.583Z,102367.27
2018-05-21T05:12:47.455Z,102371.08
2018-05-21T05:15:33.063Z,102363.41
2018-05-21T05:17:59.889Z,102371.17
2018-05-21T05:20:26.719Z,102362.69
2018-05-21T05:22:53.953Z,102372.38
2018-05-21T05:25:20.795Z,102370.84
2018-05-21T05:27:47.627Z,102375.72
2018-05-21T05:30:14.486Z,102366.80
2018-05-21T05:32:42.055Z,102364.20
2018-05-21T05:35:09.847Z,102363.70
2018-05-21T05:37:36.704Z,102362.64
2018-05-21T05:40:03.549Z,102363.38
2018-05-21T05:42:30.363Z,102360.02
2018-05-21T05:44:58.045Z,102364.34
2018-05-21T05:47:24.872Z,102363.97
2018-05-21T05:49:51.759Z,102361.11
2018-05-21T05:52:18.632Z,102360.91
2018-05-21T05:54:45.451Z,102365.29
2018-05-21T05:57:12.271Z,102369.42
2018-05-21T05:59:39.134Z,102367.56
2018-05-21T06:02:05.952Z,102362.28
2018-05-21T06:04:32.759Z,102366.41
2018-05-21T06:07:00.356Z,102369.77
2018-05-21T06:09:27.226Z,102365.34
2018-05-21T06:11:54.041Z,102366.45
2018-05-21T06:14:20.903Z,102364.03
2018-05-21T06:16:47.793Z,102365.04
2018-05-21T06:19:15.648Z,102367.20
2018-05-21T06:21:42.669Z,102362.34
2018-05-21T06:24:09.499Z,102359.37
2018-05-21T06:26:36.308Z,102355.67
2018-05-21T06:29:03.921Z,102360.14
2018-05-21T06:31:30.735Z,102357.72
2018-05-21T06:33:57.706Z,102358.53
2018-05-21T06:36:24.483Z,102360.38
2018-05-21T06:38:51.295Z,102352.84
2018-05-21T06:41:18.141Z,102355.19
2018-05-21T06:43:45.027Z,102358.61
2018-05-21T06:46:13.219Z,102351.43
2018-05-21T06:48:40.253Z,102352.84
2018-05-21T06:51:07.938Z,102354.98
2018-05-21T06:53:34.811Z,102349.61
2018-05-21T06:56:01.671Z,102345.41
2018-05-21T06:58:28.636Z,102349.61
2018-05-21T07:00:55.451Z,102350.23
2018-05-21T07:03:22.267Z,102343.48
2018-05-21T07:05:49.294Z,102344.39
2018-05-21T07:08:16.851Z,102339.01
2018-05-21T07:10:44.428Z,102346.47
2018-05-21T07:13:11.468Z,102338.46
2018-05-21T07:15:38.290Z,102343.13
2018-05-21T07:18:05.135Z,102346.52
2018-05-21T07:20:31.989Z,102342.76
2018-05-21T07:22:59.551Z,102343.66
2018-05-21T07:25:27.107Z,102339.19
2018-05-21T07:27:54.016Z,102339.27
2018-05-21T07:30:20.832Z,102332.37
2018-05-21T07:32:47.658Z,102328.87
2018-05-21T07:35:15.380Z,102330.73
2018-05-21T07:37:42.216Z,102322.15
2018-05-21T07:40:09.062Z,102308.44
2018-05-21T07:42:35.930Z,102309.83
2018-05-21T07:45:02.816Z,102313.62
2018-05-21T07:47:29.771Z,102314.55
2018-05-21T07:49:56.630Z,102303.86
2018-05-21T07:52:23.512Z,102295.78
2018-05-21T07:54:50.337Z,102293.22
2018-05-21T07:57:17.285Z,102296.33
2018-05-21T07:59:44.130Z,102295.21
2018-05-21T08:02:10.959Z,102285.70
2018-05-21T08:04:37.824Z,102284.36
2018-05-21T08:07:04.648Z,102281.34
2018-05-21T08:09:31.460Z,102287.86
2018-05-21T08:11:58.314Z,102273.47
2018-05-21T08:14:25.171Z,102268.91
2018-05-21T08:16:52.012Z,102267.05
2018-05-21T08:19:19.147Z,102256.41
2018-05-21T08:21:46.023Z,102262.41
2018-05-21T08:24:12.864Z,102270.92
2018-05-21T08:26:39.724Z,102260.16
2018-05-21T08:29:06.595Z,102247.37
2018-05-21T08:31:33.451Z,102250.38
2018-05-21T08:34:01.012Z,102243.74
2018-05-21T08:36:27.881Z,102239.06
2018-05-21T08:38:54.704Z,102241.25
2018-05-21T08:41:21.530Z,102244.98
2018-05-21T08:43:49.149Z,102239.27
2018-05-21T08:46:15.999Z,102242.91
2018-05-21T08:48:42.881Z,102236.99
2018-05-21T08:51:09.779Z,102247.73
2018-05-21T08:53:36.647Z,102242.66
2018-05-21T08:56:03.487Z,102236.73
2018-05-21T08:58:30.347Z,102227.63
2018-05-21T09:00:57.198Z,102219.25
2018-05-21T09:03:24.015Z,102214.36
2018-05-21T09:05:50.899Z,102222.24
2018-05-21T09:08:18.479Z,102215.11
2018-05-21T09:10:45.295Z,102216.28
2018-05-21T09:13:14.643Z,102207.61
2018-05-21T09:15:41.463Z,102206.70
2018-05-21T09:18:08.311Z,102208.48
2018-05-21T09:20:35.221Z,102215.47
2018-05-21T09:23:03.705Z,102204.54
2018-05-21T09:25:31.086Z,102193.74
2018-05-21T09:27:57.956Z,102183.33
2018-05-21T09:30:24.775Z,102183.28
2018-05-21T09:32:52.382Z,102176.54
2018-05-21T09:35:19.236Z,102177.62
2018-05-21T09:37:46.060Z,102175.95
2018-05-21T09:40:12.884Z,102169.73
2018-05-21T09:42:39.752Z,102161.83
2018-05-21T09:45:06.592Z,102163.44
2018-05-21T09:47:33.427Z,102164.51
2018-05-21T09:50:00.365Z,102164.51
2018-05-21T09:52:27.448Z,102160.02
2018-05-21T09:54:54.273Z,102153.59
2018-05-21T09:57:21.377Z,102152.72
2018-05-21T09:59:48.938Z,102145.48
2018-05-21T10:02:16.496Z,102144.25
2018-05-21T10:04:43.417Z,102137.42
2018-05-21T10:07:10.338Z,102139.69
2018-05-21T10:09:37.182Z,102140.13
2018-05-21T10:12:04.902Z,102130.27
2018-05-21T10:14:31.745Z,102136.17
2018-05-21T10:16:59.309Z,102136.30
2018-05-21T10:19:26.885Z,102129.65
2018-05-21T10:21:53.827Z,102123.62
2018-05-21T10:24:20.641Z,102124.67
2018-05-21T10:26:47.476Z,102128.91
2018-05-21T10:29:14.347Z,102112.64
2018-05-21T10:31:41.976Z,102113.50
2018-05-21T10:34:08.788Z,102110.25
2018-05-21T10:36:35.643Z,102099.69
2018-05-21T10:39:02.571Z,102110.07
2018-05-21T10:41:29.443Z,102102.50
2018-05-21T10:43:56.337Z,102096.92
2018-05-21T10:46:23.132Z,102100.17
2018-05-21T10:48:50.003Z,102097.27
2018-05-21T10:51:17.661Z,102099.94
2018-05-21T10:53:44.456Z,102079.18
2018-05-21T10:56:12.232Z,102079.98
2018-05-21T10:58:39.055Z,102084.30
2018-05-21T11:01:05.899Z,102085.77
2018-05-21T11:03:32.753Z,102078.39
2018-05-21T11:05:59.585Z,102068.28
2018-05-21T11:08:27.249Z,102067.46
2018-05-21T11:10:54.129Z,102070.70
2018-05-21T11:13:20.957Z,102067.06
2018-05-21T11:15:47.792Z,102059.14
2018-05-21T11:18:14.700Z,102052.66
2018-05-21T11:20:42.332Z,102049.72
2018-05-21T11:23:09.158Z,102043.97
2018-05-21T11:25:36.136Z,102035.39
2018-05-21T11:28:03.063Z,102039.52
2018-05-21T11:30:29.889Z,102030.54
2018-05-21T11:32:57.639Z,102033.60
2018-05-21T11:35:24.439Z,102026.21
2018-05-21T11:37:51.263Z,102039.73
2018-05-21T11:40:18.135Z,102021.17
2018-05-21T11:42:45.054Z,102033.83
2018-05-21T11:45:12.608Z,102023.11
2018-05-21T11:47:39.462Z,102018.91
2018-05-21T11:50:06.310Z,102021.70
2018-05-21T11:52:33.188Z,102006.48
2018-05-21T11:55:00.021Z,102014.35
2018-05-21T11:57:27.588Z,102009.46
2018-05-21T11:59:55.155Z,101983.39
2018-05-21T12:02:22.753Z,101989.83
2018-05-21T12:04:49.571Z,101982.81
2018-05-21T12:07:16.400Z,101987.27
2018-05-21T12:09:43.450Z,101986.27
2018-05-21T12:12:11.011Z,101985.47
2018-05-21T12:14:38.590Z,101978.82
2018-05-21T12:17:05.570Z,101972.81
2018-05-21T12:19:32.390Z,101965.43
2018-05-21T12:21:59.307Z,101970.64
2018-05-21T12:24:27.006Z,101976.42
2018-05-21T12:26:53.847Z,101971.58
2018-05-21T12:29:20.669Z,101966.59
2018-05-21T12:31:47.531Z,101960.64
2018-05-21T12:34:14.439Z,101966.29
2018-05-21T12:36:41.994Z,101952.23
2018-05-21T12:39:08.867Z,101953.03
2018-05-21T12:41:35.688Z,101957.39
2018-05-21T12:44:03.265Z,101946.17
2018-05-21T12:46:30.130Z,101946.21
2018-05-21T12:48:57.051Z,101948.02
2018-05-21T12:51:24.605Z,101936.23
2018-05-21T12:53:52.212Z,101936.89
2018-05-21T12:56:19.051Z,101929.11
2018-05-21T12:58:45.876Z,101927.41
2018-05-21T13:01:12.800Z,101929.25
2018-05-21T13:03:39.753Z,101927.45
2018-05-21T13:06:06.591Z,101927.52
2018-05-21T13:08:34.169Z,101920.49
2018-05-21T13:11:01.045Z,101911.59
2018-05-21T13:13:27.868Z,101918.83
2018-05-21T13:15:54.724Z,101911.23
2018-05-21T13:18:21.615Z,101904.36
2018-05-21T13:20:48.440Z,101898.68
2018-05-21T13:23:15.272Z,101903.59
2018-05-21T13:25:42.148Z,101896.02
2018-05-21T13:28:08.969Z,101903.92
2018-05-21T13:30:35.887Z,101891.41
2018-05-21T13:33:02.773Z,101891.43
2018-05-21T13:35:29.679Z,101877.01
2018-05-21T13:37:56.596Z,101872.95
2018-05-21T13:40:23.464Z,101872.86
2018-05-21T13:42:50.274Z,101871.84
2018-05-21T13:45:17.828Z,101871.08
2018-05-21T13:47:44.788Z,101868.31
2018-05-21T13:50:12.367Z,101864.13
2018-05-21T13:52:39.179Z,101861.78
2018-05-21T13:55:07.197Z,101855.88
2018-05-21T13:57:34.448Z,101848.97
2018-05-21T14:00:01.264Z,101848.02
2018-05-21T14:02:28.308Z,101852.50
2018-05-21T14:04:56.263Z,101848.80
2018-05-21T14:07:23.574Z,101850.87
2018-05-21T14:09:50.728Z,101853.02
2018-05-21T14:12:17.548Z,101850.84
2018-05-21T14:14:44.376Z,101847.23
2018-05-21T14:17:11.298Z,101842.80
2018-05-21T14:19:38.123Z,101833.95
2018-05-21T14:22:05.157Z,101836.61
2018-05-21T14:24:32.772Z,101830.70
2018-05-21T14:27:00.347Z,101824.64
2018-05-21T14:29:27.501Z,101824.84
2018-05-21T14:31:54.539Z,101817.16
2018-05-21T14:34:22.101Z,101816.97
2018-05-21T14:36:49.840Z,101813.36
2018-05-21T14:39:17.673Z,101808.11
2018-05-21T14:41:44.480Z,101798.78
2018-05-21T14:44:12.035Z,101798.46
2018-05-21T14:46:38.932Z,101794.09
2018-05-21T14:49:05.855Z,101791.28
2018-05-21T14:51:32.828Z,101790.34
2018-05-21T14:53:59.889Z,101789.14
2018-05-21T14:56:26.770Z,101783.93
2018-05-21T14:58:53.623Z,101780.45
2018-05-21T15:01:20.615Z,101772.20
2018-05-21T15:03:47.577Z,101769.99
2018-05-21T15:06:14.399Z,101771.90
2018-05-21T15:08:41.380Z,101765.95
2018-05-21T15:11:08.981Z,101767.65
2018-05-21T15:13:35.941Z,101768.89
2018-05-21T15:16:03.153Z,101763.74
2018-05-21T15:18:30.159Z,101754.80
2018-05-21T15:20:57.017Z,101749.85
2018-05-21T15:23:24.041Z,101743.47
2018-05-21T15:25:51.662Z,101751.70
2018-05-21T15:28:18.504Z,101751.52
2018-05-21T15:30:46.132Z,101746.03
2018-05-21T15:33:12.939Z,101747.17
2018-05-21T15:35:39.753Z,101743.67
2018-05-21T15:38:07.388Z,101746.10
2018-05-21T15:40:34.214Z,101738.73
2018-05-21T15:43:01.032Z,101745.47
2018-05-21T15:45:28.147Z,101735.53
2018-05-21T15:47:54.975Z,101738.28
2018-05-21T15:50:21.800Z,101730.56
2018-05-21T15:52:48.660Z,101725.70
2018-05-21T15:55:15.527Z,101724.64
2018-05-21T15:57:42.426Z,101720.53
2018-05-21T16:00:09.403Z,101718.58
2018-05-21T16:02:36.967Z,101726.08
2018-05-21T16:05:04.634Z,101716.00
2018-05-21T16:07:32.237Z,101715.88
2018-05-21T16:09:59.072Z,101717.05
2018-05-21T16:12:25.893Z,101718.45
2018-05-21T16:14:53.652Z,101709.84
2018-05-21T16:17:20.591Z,101712.98
2018-05-21T16:19:48.153Z,101708.07
2018-05-21T16:22:15.858Z,101710.38
2018-05-21T16:24:42.675Z,101703.16
2018-05-21T16:27:09.584Z,101708.73
2018-05-21T16:29:36.432Z,101693.00
2018-05-21T16:32:03.284Z,101700.74
2018-05-21T16:34:30.859Z,101700.48
2018-05-21T16:36:58.576Z,101697.17
2018-05-21T16:39:25.397Z,101700.68
2018-05-21T16:41:52.279Z,101696.44
2018-05-21T16:44:19.157Z,101691.94
2018-05-21T16:46:46.729Z,101697.47
2018-05-21T16:49:14.336Z,101690.71
2018-05-21T16:51:42.039Z,101693.23
2018-05-21T16:54:08.856Z,101695.64
2018-05-21T16:56:35.775Z,101688.29
2018-05-21T16:59:02.704Z,101689.64
2018-05-21T17:01:29.529Z,101697.50
2018-05-21T17:03:57.096Z,101693.68
2018-05-21T17:06:24.856Z,101691.45
2018-05-21T17:08:52.416Z,101684.95
2018-05-21T17:11:19.967Z,101693.33
2018-05-21T17:13:47.663Z,101685.63
2018-05-21T17:16:14.491Z,101689.01
2018-05-21T17:18:41.355Z,101686.45
2018-05-21T17:21:08.291Z,101689.27
2018-05-21T17:23:35.112Z,101694.30
2018-05-21T17:26:02.704Z,101696.05
2018-05-21T17:28:30.644Z,101686.88
2018-05-21T17:30:58.255Z,101687.31
2018-05-21T17:33:25.811Z,101684.77
2018-05-21T17:35:52.788Z,101683.50
2018-05-21T17:38:19.611Z,101684.34
2018-05-21T17:40:46.432Z,101690.39
2018-05-21T17:43:13.307Z,101696.20
2018-05-21T17:45:40.904Z,101689.56
2018-05-21T17:48:08.474Z,101686.63
2018-05-21T17:50:36.081Z,101686.27
2018-05-21T17:53:02.893Z,101680.03
2018-05-21T17:55:29.711Z,101687.86
2018-05-21T17:57:57.367Z,101681.95
2018-05-21T18:00:24.179Z,101682.66
2018-05-21T18:02:50.995Z,101682.62
2018-05-21T18:05:17.876Z,101680.16
2018-05-21T18:07:45.438Z,101684.06
2018-05-21T18:10:12.289Z,101680.39
2018-05-21T18:12:40.807Z,101681.30
2018-05-21T18:15:08.367Z,101683.78
2018-05-21T18:17:35.246Z,101683.44
2018-05-21T18:20:02.128Z,101688.70
2018-05-21T18:22:28.969Z,101681.94
2018-05-21T18:24:55.869Z,101683.73
2018-05-21T18:27:22.720Z,101688.89
2018-05-21T18:29:49.596Z,101687.05
2018-05-21T18:32:16.416Z,101679.01
2018-05-21T18:34:43.280Z,101682.27
2018-05-21T18:37:10.103Z,101676.55
2018-05-21T18:39:36.919Z,101681.78
2018-05-21T18:42:03.833Z,101684.86
2018-05-21T18:44:30.703Z,101677.13
2018-05-21T18:46:58.282Z,101682.47
2018-05-21T18:49:25.148Z,101681.79
2018-05-21T18:51:51.982Z,101674.07
2018-05-21T18:54:18.808Z,101681.48
2018-05-21T18:56:45.676Z,101687.25
2018-05-21T18:59:12.559Z,101681.16
2018-05-21T19:01:40.150Z,101679.88
2018-05-21T19:04:07.887Z,101675.48
2018-05-21T19:06:34.732Z,101685.59
2018-05-21T19:09:02.403Z,101681.08
2018-05-21T19:11:30.003Z,101677.63
2018-05-21T19:13:56.961Z,101675.89
2018-05-21T19:16:23.800Z,101683.86
2018-05-21T19:18:50.681Z,101675.20
2018-05-21T19:21:18.272Z,101678.59
2018-05-21T19:23:45.832Z,101686.74
2018-05-21T19:26:13.662Z,101680.53
2018-05-21T19:28:40.712Z,101682.55
2018-05-21T19:31:07.531Z,101688.52
2018-05-21T19:33:34.437Z,101683.44
2018-05-21T19:36:01.278Z,101687.05
2018-05-21T19:38:28.108Z,101684.30
2018-05-21T19:40:55.027Z,101687.70
2018-05-21T19:43:21.832Z,101685.79
2018-05-21T19:45:48.716Z,101690.18
2018-05-21T19:48:15.649Z,101691.02
2018-05-21T19:50:42.504Z,101689.45
2018-05-21T19:53:09.336Z,101685.52
2018-05-21T19:55:36.208Z,101690.51
2018-05-21T19:58:08.830Z,101694.10
2018-05-21T20:00:41.447Z,101691.53
2018-05-21T20:03:14.308Z,101695.78
2018-05-21T20:05:41.322Z,101691.19
2018-05-21T20:08:08.878Z,101690.44
2018-05-21T20:10:35.677Z,101696.84
2018-05-21T20:13:03.558Z,101694.08
2018-05-21T20:15:31.206Z,101700.02
2018-05-21T20:17:58.747Z,101702.98
2018-05-21T20:20:42.050Z,101691.72
2018-05-21T20:23:08.918Z,101691.92
2018-05-21T20:25:35.718Z,101692.34
2018-05-21T20:28:02.564Z,101687.20
2018-05-21T20:30:29.428Z,101690.16
2018-05-21T20:32:56.191Z,101695.33
2018-05-21T20:35:22.999Z,101693.95
2018-05-21T20:37:49.815Z,101697.72
2018-05-21T20:40:16.595Z,101697.13
2018-05-21T20:42:43.464Z,101703.26
2018-05-21T20:45:10.284Z,101691.60
2018-05-21T20:47:37.073Z,101691.42
2018-05-21T20:50:04.679Z,101685.67
2018-05-21T20:52:31.457Z,101690.23
2018-05-21T20:54:58.285Z,101695.56
2018-05-21T20:57:25.098Z,101692.00
2018-05-21T20:59:51.867Z,101693.59
2018-05-21T21:02:18.656Z,101687.66
2018-05-21T21:04:46.215Z,101687.66
2018-05-21T21:07:13.069Z,101685.70
2018-05-21T21:09:39.832Z,101684.50
2018-05-21T21:12:07.057Z,101687.67
2018-05-21T21:14:34.587Z,101693.39
2018-05-21T21:17:01.376Z,101686.69
2018-05-21T21:19:28.315Z,101693.17
2018-05-21T21:21:55.089Z,101691.39
2018-05-21T21:24:21.856Z,101690.98
2018-05-21T21:26:48.674Z,101695.72
2018-05-21T21:29:15.457Z,101690.59
2018-05-21T21:31:42.297Z,101685.05
2018-05-21T21:34:09.096Z,101681.66
2018-05-21T21:36:35.898Z,101686.01
2018-05-21T21:39:04.334Z,101682.44
2018-05-21T21:41:31.290Z,101683.60
2018-05-21T21:43:58.111Z,101685.39
2018-05-21T21:46:24.892Z,101690.14
2018-05-21T21:48:51.876Z,101688.15
2018-05-21T21:51:18.648Z,101680.23
2018-05-21T21:53:51.267Z,101684.13
2018-05-21T21:56:18.135Z,101677.19
2018-05-21T21:58:45.667Z,101680.18
2018-05-21T22:01:12.480Z,101670.87
2018-05-21T22:03:39.299Z,101674.02
2018-05-21T22:06:06.101Z,101675.41
2018-05-21T22:08:32.945Z,101674.98
2018-05-21T22:10:59.766Z,101671.05
2018-05-21T22:13:26.584Z,101673.98
2018-05-21T22:15:53.370Z,101671.04
2018-05-21T22:18:25.991Z,101671.96
2018-05-21T22:20:52.811Z,101667.55
2018-05-21T22:23:20.310Z,101669.73
2018-05-21T22:25:47.167Z,101664.97
2018-05-21T22:28:13.938Z,101664.59
2018-05-21T22:30:40.704Z,101670.05
2018-05-21T22:33:07.655Z,101666.47
2018-05-21T22:35:35.168Z,101659.33
2018-05-21T22:38:01.969Z,101659.31
2018-05-21T22:40:28.854Z,101655.30
2018-05-21T22:43:01.696Z,101655.66
2018-05-21T22:45:28.547Z,101660.59
2018-05-21T22:48:02.197Z,101663.06
2018-05-21T22:50:28.976Z,101656.94
2018-05-21T22:52:56.479Z,101647.45
2018-05-21T22:55:23.280Z,101649.78
2018-05-21T22:57:56.721Z,101650.25
2018-05-21T23:00:23.528Z,101650.16
2018-05-21T23:02:57.356Z,101645.58
2018-05-21T23:05:24.123Z,101640.55
2018-05-21T23:07:57.072Z,101639.98
2018-05-21T23:10:23.891Z,101640.27
2018-05-21T23:12:51.391Z,101640.35
2018-05-21T23:15:24.155Z,101636.77
2018-05-21T23:17:57.291Z,101636.71
2018-05-21T23:20:24.847Z,101639.43
2018-05-21T23:22:57.665Z,101637.63
2018-05-21T23:25:25.180Z,101635.59
2018-05-21T23:27:51.963Z,101637.11
2018-05-21T23:30:18.772Z,101635.30
2018-05-21T23:32:46.327Z,101635.89
2018-05-21T23:35:13.095Z,101637.03
2018-05-21T23:37:39.911Z,101632.73
2018-05-21T23:40:06.691Z,101628.78
2018-05-21T23:42:33.515Z,101636.16
2018-05-21T23:45:00.488Z,101627.91
2018-05-21T23:47:27.263Z,101632.92
2018-05-21T23:49:54.029Z,101634.89
2018-05-21T23:52:20.845Z,101631.66
2018-05-21T23:54:47.624Z,101628.33
2018-05-21T23:57:14.456Z,101624.57
2018-05-21T23:59:41.453Z,101620.59
